createdAt,value
2018-11-26T00:00:01.942Z,4.80
2018-11-26T00:02:29.361Z,4.80
2018-11-26T00:04:56.677Z,4.80
2018-11-26T00:07:23.994Z,4.80
2018-11-26T00:09:51.273Z,4.80
2018-11-26T00:12:18.552Z,4.70
2018-11-26T00:14:45.838Z,4.80
2018-11-26T00:17:13.131Z,4.80
2018-11-26T00:19:40.411Z,4.70
2018-11-26T00:22:07.710Z,4.70
2018-11-26T00:24:34.996Z,4.70
2018-11-26T00:27:02.287Z,4.70
2018-11-26T00:29:29.575Z,4.80
2018-11-26T00:31:56.893Z,4.70
2018-11-26T00:34:24.187Z,4.60
2018-11-26T00:36:51.490Z,4.70
2018-11-26T00:39:18.784Z,4.60
2018-11-26T00:41:46.098Z,4.70
2018-11-26T00:44:13.381Z,4.60
2018-11-26T00:46:40.668Z,4.60
2018-11-26T00:49:07.966Z,4.50
2018-11-26T00:51:35.253Z,4.60
2018-11-26T00:54:02.549Z,4.50
2018-11-26T00:56:29.983Z,4.50
2018-11-26T00:58:57.270Z,4.50
2018-11-26T01:01:24.573Z,4.60
2018-11-26T01:03:51.854Z,4.50
2018-11-26T01:06:19.149Z,4.50
2018-11-26T01:08:46.469Z,4.50
2018-11-26T01:11:13.765Z,4.50
2018-11-26T01:13:41.147Z,4.50
2018-11-26T01:16:08.445Z,4.40
2018-11-26T01:18:35.738Z,4.40
2018-11-26T01:21:03.028Z,4.40
2018-11-26T01:23:30.342Z,4.30
2018-11-26T01:25:57.630Z,4.30
2018-11-26T01:28:24.928Z,4.30
2018-11-26T01:30:52.221Z,4.20
2018-11-26T01:33:19.505Z,4.30
2018-11-26T01:35:46.819Z,4.20
2018-11-26T01:38:14.106Z,4.20
2018-11-26T01:40:47.125Z,4.30
2018-11-26T01:43:14.430Z,4.30
2018-11-26T01:45:41.697Z,4.20
2018-11-26T01:48:08.996Z,4.20
2018-11-26T01:50:36.307Z,4.20
2018-11-26T01:53:04.342Z,4.10
2018-11-26T01:55:31.621Z,4.10
2018-11-26T01:57:58.907Z,4.30
2018-11-26T02:00:26.625Z,4.30
2018-11-26T02:02:54.033Z,4.20
2018-11-26T02:05:21.390Z,4.20
2018-11-26T02:07:48.706Z,4.20
2018-11-26T02:10:17.373Z,4.20
2018-11-26T02:12:44.682Z,4.10
2018-11-26T02:15:44.304Z,4.00
2018-11-26T02:18:11.601Z,4.00
2018-11-26T02:20:38.989Z,3.90
2018-11-26T02:23:06.645Z,3.90
2018-11-26T02:25:33.959Z,3.90
2018-11-26T02:28:01.279Z,3.80
2018-11-26T02:30:28.578Z,3.80
2018-11-26T02:32:55.862Z,3.60
2018-11-26T02:35:23.170Z,3.50
2018-11-26T02:37:51.357Z,3.50
2018-11-26T02:40:22.698Z,3.50
2018-11-26T02:42:50.025Z,3.40
2018-11-26T02:45:17.338Z,3.50
2018-11-26T02:47:44.597Z,3.40
2018-11-26T02:50:11.951Z,3.50
2018-11-26T02:52:39.225Z,3.50
2018-11-26T02:55:06.557Z,3.50
2018-11-26T02:57:33.842Z,3.50
2018-11-26T03:00:01.150Z,3.50
2018-11-26T03:02:28.449Z,3.50
2018-11-26T03:04:55.721Z,3.50
2018-11-26T03:07:23.033Z,3.60
2018-11-26T03:09:50.325Z,3.70
2018-11-26T03:12:17.626Z,3.60
2018-11-26T03:14:44.914Z,3.60
2018-11-26T03:17:12.221Z,3.60
2018-11-26T03:19:39.506Z,3.60
2018-11-26T03:22:06.810Z,3.60
2018-11-26T03:24:34.107Z,3.60
2018-11-26T03:27:01.398Z,3.60
2018-11-26T03:29:28.689Z,3.70
2018-11-26T03:31:55.973Z,3.60
2018-11-26T03:34:23.247Z,3.60
2018-11-26T03:36:50.547Z,3.50
2018-11-26T03:39:17.921Z,3.60
2018-11-26T03:41:45.384Z,3.60
2018-11-26T03:44:12.701Z,3.60
2018-11-26T03:46:39.989Z,3.60
2018-11-26T03:49:07.273Z,3.60
2018-11-26T03:51:34.589Z,3.60
2018-11-26T03:54:01.949Z,3.60
2018-11-26T03:56:29.237Z,3.60
2018-11-26T03:58:56.529Z,3.50
2018-11-26T04:01:23.826Z,3.50
2018-11-26T04:03:51.112Z,3.60
2018-11-26T04:06:18.401Z,3.80
2018-11-26T04:08:45.690Z,3.90
2018-11-26T04:11:12.965Z,4.00
2018-11-26T04:13:40.262Z,3.90
2018-11-26T04:16:07.538Z,4.00
2018-11-26T04:18:34.834Z,4.00
2018-11-26T04:21:02.117Z,4.00
2018-11-26T04:23:29.413Z,4.00
2018-11-26T04:25:56.693Z,4.00
2018-11-26T04:28:23.981Z,3.90
2018-11-26T04:30:51.278Z,3.70
2018-11-26T04:33:18.573Z,3.50
2018-11-26T04:35:45.850Z,3.30
2018-11-26T04:38:13.157Z,3.40
2018-11-26T04:40:40.439Z,3.50
2018-11-26T04:43:07.738Z,3.60
2018-11-26T04:45:35.068Z,3.50
2018-11-26T04:48:02.445Z,3.50
2018-11-26T04:50:29.734Z,3.50
2018-11-26T04:52:57.057Z,3.60
2018-11-26T04:55:24.358Z,3.80
2018-11-26T04:57:51.646Z,3.80
2018-11-26T05:00:18.954Z,3.80
2018-11-26T05:02:46.230Z,3.80
2018-11-26T05:05:13.554Z,3.90
2018-11-26T05:07:40.906Z,3.90
2018-11-26T05:10:10.489Z,3.90
2018-11-26T05:12:37.800Z,3.90
2018-11-26T05:15:06.626Z,4.00
2018-11-26T05:17:33.907Z,4.00
2018-11-26T05:20:01.222Z,4.00
2018-11-26T05:22:28.494Z,3.90
2018-11-26T05:24:55.786Z,4.00
2018-11-26T05:27:23.066Z,4.00
2018-11-26T05:29:50.359Z,4.00
2018-11-26T05:32:17.678Z,4.00
2018-11-26T05:34:44.986Z,4.10
2018-11-26T05:37:12.250Z,4.10
2018-11-26T05:39:39.517Z,4.00
2018-11-26T05:42:06.806Z,4.00
2018-11-26T05:44:34.069Z,3.90
2018-11-26T05:47:01.370Z,3.90
2018-11-26T05:49:28.633Z,3.80
2018-11-26T05:51:55.907Z,3.60
2018-11-26T05:54:23.181Z,3.50
2018-11-26T05:56:50.482Z,3.40
2018-11-26T05:59:17.754Z,3.30
2018-11-26T06:01:45.164Z,3.30
2018-11-26T06:04:12.582Z,3.20
2018-11-26T06:06:39.901Z,3.30
2018-11-26T06:09:09.114Z,3.40
2018-11-26T06:11:37.829Z,3.40
2018-11-26T06:14:05.763Z,3.50
2018-11-26T06:16:33.169Z,3.50
2018-11-26T06:19:00.453Z,3.50
2018-11-26T06:21:27.729Z,3.40
2018-11-26T06:23:55.006Z,3.50
2018-11-26T06:26:22.281Z,3.50
2018-11-26T06:28:49.554Z,3.50
2018-11-26T06:31:16.849Z,3.60
2018-11-26T06:33:44.126Z,3.60
2018-11-26T06:36:11.412Z,3.80
2018-11-26T06:38:38.689Z,3.70
2018-11-26T06:41:06.009Z,3.70
2018-11-26T06:43:33.294Z,3.80
2018-11-26T06:46:00.557Z,3.70
2018-11-26T06:48:27.845Z,3.70
2018-11-26T06:50:55.121Z,3.70
2018-11-26T06:53:22.397Z,3.70
2018-11-26T06:55:49.761Z,3.80
2018-11-26T06:58:17.045Z,3.80
2018-11-26T07:00:44.305Z,3.80
2018-11-26T07:03:11.582Z,3.80
2018-11-26T07:05:38.875Z,3.80
2018-11-26T07:08:06.149Z,3.80
2018-11-26T07:10:33.421Z,3.90
2018-11-26T07:13:00.777Z,3.90
2018-11-26T07:15:28.045Z,3.90
2018-11-26T07:17:55.334Z,3.80
2018-11-26T07:20:22.637Z,3.90
2018-11-26T07:22:49.917Z,3.90
2018-11-26T07:25:18.818Z,3.90
2018-11-26T07:27:50.597Z,4.00
2018-11-26T07:30:19.897Z,4.00
2018-11-26T07:32:47.166Z,4.00
2018-11-26T07:35:15.119Z,4.10
2018-11-26T07:37:42.421Z,4.10
2018-11-26T07:40:14.821Z,4.20
2018-11-26T07:42:44.613Z,4.10
2018-11-26T07:45:12.822Z,4.20
2018-11-26T07:47:40.133Z,4.20
2018-11-26T07:50:09.277Z,4.30
2018-11-26T07:52:36.569Z,4.20
2018-11-26T07:55:05.726Z,4.30
2018-11-26T07:57:33.903Z,4.30
2018-11-26T08:00:01.437Z,4.30
2018-11-26T08:02:28.729Z,4.30
2018-11-26T08:04:56.017Z,4.30
2018-11-26T08:07:23.301Z,4.40
2018-11-26T08:09:50.635Z,4.40
2018-11-26T08:12:17.913Z,4.50
2018-11-26T08:14:45.174Z,4.50
2018-11-26T08:17:12.465Z,4.40
2018-11-26T08:19:39.739Z,4.50
2018-11-26T08:22:07.022Z,4.50
2018-11-26T08:24:34.338Z,4.50
2018-11-26T08:27:01.624Z,4.60
2018-11-26T08:29:28.914Z,4.60
2018-11-26T08:31:56.186Z,4.60
2018-11-26T08:34:23.466Z,4.60
2018-11-26T08:36:55.318Z,4.70
2018-11-26T08:39:27.171Z,4.70
2018-11-26T08:41:54.455Z,4.70
2018-11-26T08:44:21.770Z,4.80
2018-11-26T08:46:55.114Z,4.80
2018-11-26T08:49:25.137Z,4.70
2018-11-26T08:51:52.481Z,4.80
2018-11-26T08:54:19.906Z,4.80
2018-11-26T08:56:47.201Z,4.80
2018-11-26T08:59:14.460Z,4.90
2018-11-26T09:01:41.786Z,5.00
2018-11-26T09:04:10.590Z,5.00
2018-11-26T09:06:37.884Z,5.00
2018-11-26T09:09:08.917Z,5.00
2018-11-26T09:11:36.233Z,5.00
2018-11-26T09:14:04.238Z,5.00
2018-11-26T09:16:31.526Z,5.10
2018-11-26T09:18:58.821Z,5.10
2018-11-26T09:21:26.112Z,5.20
2018-11-26T09:23:53.413Z,5.20
2018-11-26T09:26:20.696Z,5.20
2018-11-26T09:28:48.015Z,5.20
2018-11-26T09:31:15.310Z,5.20
2018-11-26T09:33:42.601Z,5.30
2018-11-26T09:36:09.878Z,5.30
2018-11-26T09:38:37.169Z,5.40
2018-11-26T09:41:04.670Z,5.40
2018-11-26T09:43:31.961Z,5.40
2018-11-26T09:45:59.217Z,5.30
2018-11-26T09:48:26.529Z,5.40
2018-11-26T09:50:53.817Z,5.40
2018-11-26T09:53:21.101Z,5.30
2018-11-26T09:55:48.397Z,5.40
2018-11-26T09:58:15.683Z,5.40
2018-11-26T10:00:42.992Z,5.50
2018-11-26T10:03:10.321Z,5.50
2018-11-26T10:05:37.586Z,5.50
2018-11-26T10:08:05.178Z,5.40
2018-11-26T10:10:32.475Z,5.50
2018-11-26T10:12:59.758Z,5.50
2018-11-26T10:15:27.273Z,5.50
2018-11-26T10:17:54.575Z,5.70
2018-11-26T10:20:21.861Z,5.70
2018-11-26T10:22:50.183Z,5.60
2018-11-26T10:25:18.470Z,5.60
2018-11-26T10:27:45.781Z,5.70
2018-11-26T10:30:14.042Z,5.70
2018-11-26T10:32:41.615Z,5.70
2018-11-26T10:35:10.245Z,5.70
2018-11-26T10:37:37.657Z,5.70
2018-11-26T10:40:08.610Z,5.70
2018-11-26T10:42:35.973Z,5.80
2018-11-26T10:45:03.305Z,5.80
2018-11-26T10:47:30.590Z,5.80
2018-11-26T10:49:57.997Z,5.80
2018-11-26T10:52:25.298Z,5.80
2018-11-26T10:54:53.920Z,5.90
2018-11-26T10:57:21.261Z,5.90
2018-11-26T10:59:48.910Z,5.90
2018-11-26T11:02:21.510Z,5.90
2018-11-26T11:04:48.829Z,5.90
2018-11-26T11:07:16.121Z,5.90
2018-11-26T11:09:43.478Z,5.90
2018-11-26T11:12:10.769Z,5.80
2018-11-26T11:14:38.050Z,5.90
2018-11-26T11:17:05.569Z,6.00
2018-11-26T11:19:32.854Z,5.90
2018-11-26T11:22:00.158Z,6.00
2018-11-26T11:24:27.453Z,6.00
2018-11-26T11:26:54.761Z,5.90
2018-11-26T11:29:22.032Z,6.00
2018-11-26T11:31:49.310Z,6.00
2018-11-26T11:34:16.584Z,6.00
2018-11-26T11:36:43.883Z,6.00
2018-11-26T11:39:11.235Z,6.10
2018-11-26T11:41:38.532Z,6.00
2018-11-26T11:44:05.851Z,6.00
2018-11-26T11:46:33.154Z,6.00
2018-11-26T11:49:00.431Z,6.00
2018-11-26T11:51:27.711Z,6.10
2018-11-26T11:53:55.004Z,6.00
2018-11-26T11:56:22.335Z,6.10
2018-11-26T11:58:49.623Z,6.10
2018-11-26T12:01:16.971Z,6.10
2018-11-26T12:03:44.255Z,6.10
2018-11-26T12:06:11.555Z,6.00
2018-11-26T12:08:38.847Z,6.00
2018-11-26T12:11:06.696Z,6.00
2018-11-26T12:13:34.002Z,6.00
2018-11-26T12:16:01.307Z,6.10
2018-11-26T12:18:28.590Z,6.10
2018-11-26T12:20:55.887Z,6.10
2018-11-26T12:23:23.158Z,6.10
2018-11-26T12:25:50.794Z,6.00
2018-11-26T12:28:18.086Z,6.00
2018-11-26T12:30:45.856Z,6.10
2018-11-26T12:33:13.158Z,6.10
2018-11-26T12:35:40.446Z,6.10
2018-11-26T12:38:07.738Z,6.10
2018-11-26T12:40:35.031Z,6.10
2018-11-26T12:43:03.102Z,6.20
2018-11-26T12:45:31.970Z,6.10
2018-11-26T12:47:59.467Z,6.10
2018-11-26T12:50:26.813Z,6.00
2018-11-26T12:52:54.155Z,6.00
2018-11-26T12:55:22.153Z,5.90
2018-11-26T12:57:49.819Z,6.00
2018-11-26T13:00:21.178Z,6.00
2018-11-26T13:02:51.865Z,6.00
2018-11-26T13:05:19.446Z,6.00
2018-11-26T13:07:46.753Z,6.00
2018-11-26T13:10:17.175Z,5.90
2018-11-26T13:12:45.081Z,6.00
2018-11-26T13:15:18.175Z,6.00
2018-11-26T13:17:45.558Z,6.00
2018-11-26T13:20:17.952Z,6.00
2018-11-26T13:22:45.278Z,6.10
2018-11-26T13:25:13.711Z,6.00
2018-11-26T13:27:42.524Z,5.90
2018-11-26T13:30:12.115Z,5.90
2018-11-26T13:32:39.444Z,6.00
2018-11-26T13:35:08.883Z,5.90
2018-11-26T13:37:36.176Z,6.00
2018-11-26T13:40:07.511Z,5.90
2018-11-26T13:42:34.797Z,5.90
2018-11-26T13:45:02.094Z,5.90
2018-11-26T13:47:29.391Z,5.80
2018-11-26T13:49:56.699Z,5.80
2018-11-26T13:52:23.980Z,5.80
2018-11-26T13:54:51.275Z,5.80
2018-11-26T13:57:18.562Z,5.80
2018-11-26T13:59:45.855Z,5.80
2018-11-26T14:02:17.718Z,5.70
2018-11-26T14:04:45.019Z,5.80
2018-11-26T14:07:12.301Z,5.90
2018-11-26T14:09:39.580Z,5.80
2018-11-26T14:12:06.864Z,5.80
2018-11-26T14:14:34.176Z,5.90
2018-11-26T14:17:01.446Z,5.80
2018-11-26T14:19:28.740Z,5.70
2018-11-26T14:21:56.039Z,5.80
2018-11-26T14:24:23.344Z,5.80
2018-11-26T14:26:50.626Z,5.90
2018-11-26T14:29:17.944Z,5.80
2018-11-26T14:31:45.215Z,5.70
2018-11-26T14:34:12.842Z,5.80
2018-11-26T14:36:39.839Z,5.80
2018-11-26T14:39:07.718Z,5.80
2018-11-26T14:41:35.010Z,5.80
2018-11-26T14:44:02.364Z,5.80
2018-11-26T14:46:29.647Z,5.70
2018-11-26T14:48:56.914Z,5.70
2018-11-26T14:51:24.207Z,5.70
2018-11-26T14:53:51.487Z,5.80
2018-11-26T14:56:18.799Z,5.70
2018-11-26T14:58:46.079Z,5.80
2018-11-26T15:01:13.391Z,5.70
2018-11-26T15:03:40.747Z,5.70
2018-11-26T15:06:08.047Z,5.70
2018-11-26T15:08:35.331Z,5.60
2018-11-26T15:11:02.639Z,5.60
2018-11-26T15:13:29.948Z,5.60
2018-11-26T15:15:57.251Z,5.60
2018-11-26T15:18:24.535Z,5.60
2018-11-26T15:20:51.859Z,5.60
2018-11-26T15:23:19.143Z,5.60
2018-11-26T15:25:46.435Z,5.60
2018-11-26T15:28:13.815Z,5.60
2018-11-26T15:30:41.119Z,5.60
2018-11-26T15:33:08.470Z,5.60
2018-11-26T15:35:35.757Z,5.60
2018-11-26T15:38:03.101Z,5.80
2018-11-26T15:40:30.496Z,5.70
2018-11-26T15:42:57.815Z,5.80
2018-11-26T15:45:26.507Z,5.70
2018-11-26T15:47:55.617Z,5.60
2018-11-26T15:50:22.919Z,5.60
2018-11-26T15:52:50.238Z,5.60
2018-11-26T15:55:18.690Z,5.60
2018-11-26T15:57:46.064Z,5.70
2018-11-26T16:00:21.718Z,5.60
2018-11-26T16:02:49.325Z,5.60
2018-11-26T16:05:19.799Z,5.60
2018-11-26T16:07:47.787Z,5.70
2018-11-26T16:10:15.163Z,5.60
2018-11-26T16:12:43.361Z,5.60
2018-11-26T16:15:17.955Z,5.60
2018-11-26T16:17:45.243Z,5.60
2018-11-26T16:20:13.935Z,5.60
2018-11-26T16:22:41.270Z,5.60
2018-11-26T16:25:10.391Z,5.50
2018-11-26T16:27:37.723Z,5.50
2018-11-26T16:30:08.739Z,5.50
2018-11-26T16:32:36.107Z,5.50
2018-11-26T16:35:03.446Z,5.60
2018-11-26T16:37:30.823Z,5.70
2018-11-26T16:39:58.099Z,5.80
2018-11-26T16:42:25.455Z,5.60
2018-11-26T16:44:52.755Z,5.70
2018-11-26T16:47:20.302Z,5.80
2018-11-26T16:49:47.603Z,5.80
2018-11-26T16:52:15.024Z,5.70
2018-11-26T16:54:42.325Z,5.80
2018-11-26T16:57:09.783Z,5.70
2018-11-26T16:59:37.115Z,5.60
2018-11-26T17:02:04.611Z,5.70
2018-11-26T17:04:31.982Z,5.70
2018-11-26T17:06:59.427Z,5.70
2018-11-26T17:09:26.797Z,5.60
2018-11-26T17:11:54.359Z,5.60
2018-11-26T17:14:21.831Z,5.70
2018-11-26T17:16:49.161Z,5.70
2018-11-26T17:19:16.531Z,5.50
2018-11-26T17:21:43.934Z,5.40
2018-11-26T17:24:11.361Z,5.40
2018-11-26T17:26:38.693Z,5.30
2018-11-26T17:29:06.165Z,5.30
2018-11-26T17:31:33.472Z,5.40
2018-11-26T17:34:00.829Z,5.50
2018-11-26T17:36:28.167Z,5.50
2018-11-26T17:38:55.515Z,5.40
2018-11-26T17:41:22.805Z,5.50
2018-11-26T17:43:50.111Z,5.30
2018-11-26T17:46:17.407Z,5.30
2018-11-26T17:48:44.715Z,5.30
2018-11-26T17:51:11.998Z,5.20
2018-11-26T17:53:39.275Z,5.20
2018-11-26T17:56:06.619Z,5.20
2018-11-26T17:58:33.923Z,5.20
2018-11-26T18:01:11.053Z,5.10
2018-11-26T18:03:38.395Z,5.20
2018-11-26T18:06:05.751Z,5.20
2018-11-26T18:08:33.047Z,5.20
2018-11-26T18:11:00.350Z,5.20
2018-11-26T18:13:27.727Z,5.20
2018-11-26T18:15:55.124Z,5.20
2018-11-26T18:18:22.463Z,5.20
2018-11-26T18:20:49.745Z,5.10
2018-11-26T18:23:17.136Z,5.00
2018-11-26T18:25:44.487Z,5.00
2018-11-26T18:28:14.148Z,5.00
2018-11-26T18:30:42.756Z,5.00
2018-11-26T18:33:10.099Z,4.90
2018-11-26T18:35:37.779Z,4.90
2018-11-26T18:38:05.950Z,5.00
2018-11-26T18:40:33.407Z,5.00
2018-11-26T18:43:00.786Z,5.00
2018-11-26T18:45:28.115Z,4.90
2018-11-26T18:47:55.526Z,4.90
2018-11-26T18:50:22.862Z,4.90
2018-11-26T18:52:50.765Z,4.80
2018-11-26T18:55:18.367Z,4.80
2018-11-26T18:57:45.765Z,4.70
2018-11-26T19:00:21.227Z,4.70
2018-11-26T19:02:48.612Z,4.70
2018-11-26T19:05:16.791Z,4.70
2018-11-26T19:07:44.726Z,4.60
2018-11-26T19:10:17.165Z,4.70
2018-11-26T19:12:47.214Z,4.70
2018-11-26T19:15:17.483Z,4.80
2018-11-26T19:17:45.071Z,4.80
2018-11-26T19:20:12.420Z,4.70
2018-11-26T19:22:40.130Z,4.70
2018-11-26T19:25:09.034Z,4.90
2018-11-26T19:27:36.369Z,4.80
2018-11-26T19:30:06.028Z,4.60
2018-11-26T19:32:33.315Z,4.50
2018-11-26T19:35:00.636Z,4.40
2018-11-26T19:37:27.935Z,4.40
2018-11-26T19:39:55.235Z,4.40
2018-11-26T19:42:23.552Z,4.30
2018-11-26T19:44:49.870Z,4.40
2018-11-26T19:47:17.255Z,4.30
2018-11-26T19:49:44.567Z,4.40
2018-11-26T19:52:11.960Z,4.40
2018-11-26T19:54:39.363Z,4.40
2018-11-26T19:57:06.669Z,4.50
2018-11-26T19:59:33.939Z,4.40
2018-11-26T20:02:01.271Z,4.40
2018-11-26T20:04:31.418Z,4.40
2018-11-26T20:06:58.714Z,4.30
2018-11-26T20:09:25.999Z,4.30
2018-11-26T20:11:53.333Z,4.20
2018-11-26T20:14:25.739Z,4.30
2018-11-26T20:16:47.998Z,4.30
2018-11-26T20:19:15.286Z,4.30
2018-11-26T20:21:42.651Z,4.30
2018-11-26T20:24:10.019Z,4.20
2018-11-26T20:26:37.360Z,4.20
2018-11-26T20:29:05.163Z,4.30
2018-11-26T20:31:32.459Z,4.30
2018-11-26T20:33:59.920Z,4.20
2018-11-26T20:36:28.116Z,4.10
2018-11-26T20:38:55.496Z,4.10
2018-11-26T20:41:22.800Z,4.00
2018-11-26T20:43:50.199Z,4.00
2018-11-26T20:46:17.499Z,3.90
2018-11-26T20:48:44.864Z,3.80
2018-11-26T20:51:12.237Z,3.90
2018-11-26T20:53:40.160Z,3.80
2018-11-26T20:56:11.787Z,3.90
2018-11-26T20:58:39.197Z,3.80
2018-11-26T21:01:06.615Z,3.80
2018-11-26T21:03:34.024Z,3.80
2018-11-26T21:06:01.371Z,3.70
2018-11-26T21:08:28.750Z,3.80
2018-11-26T21:10:56.058Z,3.90
2018-11-26T21:13:23.362Z,3.80
2018-11-26T21:15:50.678Z,3.80
2018-11-26T21:18:17.955Z,3.80
2018-11-26T21:20:46.770Z,4.00
2018-11-26T21:23:19.863Z,4.00
2018-11-26T21:25:47.335Z,4.00
2018-11-26T21:28:14.665Z,4.00
2018-11-26T21:30:42.014Z,4.00
2018-11-26T21:33:09.427Z,4.00
2018-11-26T21:35:36.751Z,4.00
2018-11-26T21:38:04.983Z,4.10
2018-11-26T21:40:32.287Z,4.20
2018-11-26T21:43:00.391Z,4.20
2018-11-26T21:45:35.173Z,4.20
2018-11-26T21:48:02.555Z,4.10
2018-11-26T21:50:29.839Z,4.00
2018-11-26T21:52:57.142Z,4.00
2018-11-26T21:55:24.492Z,4.10
2018-11-26T21:57:51.840Z,4.00
2018-11-26T22:00:21.280Z,4.10
2018-11-26T22:02:49.338Z,4.00
2018-11-26T22:05:16.688Z,4.00
2018-11-26T22:07:44.011Z,3.90
2018-11-26T22:10:12.490Z,3.90
2018-11-26T22:12:40.308Z,3.90
2018-11-26T22:15:10.560Z,4.00
2018-11-26T22:17:38.151Z,4.00
2018-11-26T22:20:09.291Z,3.90
2018-11-26T22:22:36.662Z,3.90
2018-11-26T22:25:04.851Z,3.90
2018-11-26T22:27:32.508Z,3.90
2018-11-26T22:29:59.807Z,3.80
2018-11-26T22:32:27.168Z,3.90
2018-11-26T22:34:54.587Z,3.90
2018-11-26T22:37:21.887Z,3.90
2018-11-26T22:39:49.156Z,3.90
2018-11-26T22:42:16.640Z,3.90
2018-11-26T22:44:43.947Z,3.90
2018-11-26T22:47:11.743Z,3.90
2018-11-26T22:49:39.159Z,3.90
2018-11-26T22:52:06.499Z,3.80
2018-11-26T22:54:33.811Z,3.80
2018-11-26T22:57:01.118Z,3.90
2018-11-26T22:59:28.431Z,4.00
2018-11-26T23:01:55.749Z,3.90
2018-11-26T23:04:23.144Z,3.80
2018-11-26T23:06:50.516Z,3.80
2018-11-26T23:09:17.811Z,3.90
2018-11-26T23:11:45.191Z,3.90
2018-11-26T23:14:12.498Z,3.80
2018-11-26T23:16:39.797Z,3.90
2018-11-26T23:19:07.347Z,3.90
2018-11-26T23:21:34.630Z,3.70
2018-11-26T23:24:02.099Z,3.80
2018-11-26T23:26:29.412Z,3.70
2018-11-26T23:28:56.906Z,3.70
2018-11-26T23:31:24.195Z,3.80
2018-11-26T23:33:51.479Z,3.80
2018-11-26T23:36:18.787Z,3.80
2018-11-26T23:38:46.072Z,3.80
2018-11-26T23:41:13.359Z,3.80
2018-11-26T23:43:40.647Z,3.80
2018-11-26T23:46:07.996Z,3.70
2018-11-26T23:48:35.283Z,3.80
2018-11-26T23:51:02.596Z,3.80
2018-11-26T23:53:29.876Z,3.60
2018-11-26T23:55:57.163Z,3.70
2018-11-26T23:58:24.474Z,3.70
